Time;durP1;ratioP1;P1;durP2;ratioP2;P2;SDS_P1;SDS_P2;PMS_P1;PMS_P2;Temp;Humidity;BMP_temperature;BMP_pressure;BME280_temperature;BME280_humidity;BME280_pressure;Samples;Min_cycle;Max_cycle;Signal;HPM_P1;HPM_P2
2021/12/18 00:02:09;;;;;;;24.33;15.30;;;5.30;91.70;;;5.63;65.40;99605.63;5007460;28;20048;-45
2021/12/18 00:04:38;;;;;;;21.97;14.77;;;5.30;91.90;;;5.65;65.29;99593.19;5008205;28;20050;-43
2021/12/18 00:07:07;;;;;;;25.03;15.83;;;5.30;92.60;;;5.65;65.74;99603.75;5007513;28;20045;-43
2021/12/18 00:09:35;;;;;;;23.30;15.10;;;5.30;91.50;;;5.63;65.59;99595.91;5009075;28;20085;-42
2021/12/18 00:12:04;;;;;;;24.67;16.23;;;5.30;91.70;;;5.62;65.48;99606.56;5007907;28;20072;-43
2021/12/18 00:14:31;;;;;;;24.07;15.67;;;5.30;91.20;;;5.61;65.12;99607.50;5008329;28;20054;-43
2021/12/18 00:16:59;;;;;;;22.87;15.57;;;5.30;91.50;;;5.61;64.76;99612.78;5006756;28;20303;-42
2021/12/18 00:19:27;;;;;;;24.30;15.97;;;5.30;91.40;;;5.59;65.26;99609.38;5007835;28;20049;-43
2021/12/18 00:21:55;;;;;;;23.03;14.93;;;5.30;91.20;;;5.57;65.13;99604.16;5007090;28;20067;-43
2021/12/18 00:24:24;;;;;;;24.63;15.07;;;5.30;90.90;;;5.57;65.54;99601.53;5006729;28;20042;-43
2021/12/18 00:26:53;;;;;;;20.93;14.57;;;5.30;90.80;;;5.54;65.28;99601.69;5007350;28;20053;-45
2021/12/18 00:29:21;;;;;;;22.40;15.43;;;5.20;91.10;;;5.53;65.04;99602.63;5007658;28;20042;-43
2021/12/18 00:31:51;;;;;;;26.30;16.77;;;5.20;91.00;;;5.55;64.85;99603.41;5006505;28;20054;-42
2021/12/18 00:34:19;;;;;;;25.10;15.93;;;5.20;91.00;;;5.52;65.29;99599.16;5007516;28;20064;-44
2021/12/18 00:36:47;;;;;;;24.23;14.23;;;5.20;91.10;;;5.51;65.85;99599.22;5007251;28;20060;-44
2021/12/18 00:39:15;;;;;;;22.67;15.60;;;5.20;91.00;;;5.49;64.74;99599.28;5006824;28;20046;-43
2021/12/18 00:44:14;;;;;;;23.43;15.37;;;5.20;90.60;;;5.52;65.12;99615.00;5007789;28;20124;-43
2021/12/18 00:46:46;;;;;;;22.23;14.13;;;5.20;90.80;;;5.55;65.46;99597.28;5008424;28;20650;-43
2021/12/18 00:49:19;;;;;;;22.30;13.57;;;5.20;90.80;;;5.51;64.63;99604.50;5007025;28;20046;-43
2021/12/18 00:51:47;;;;;;;26.20;15.45;;;5.20;90.90;;;5.50;65.26;99602.78;5007886;28;20270;-44
2021/12/18 00:54:15;;;;;;;22.67;14.83;;;5.20;90.70;;;5.48;65.05;99600.22;5005619;28;20340;-43
2021/12/18 00:56:43;;;;;;;21.60;13.70;;;5.10;91.20;;;5.46;65.05;99601.25;5006923;28;20053;-45
2021/12/18 00:59:11;;;;;;;23.40;14.10;;;5.20;90.70;;;5.45;65.61;99604.84;5006547;28;20050;-45
2021/12/18 01:01:39;;;;;;;21.77;14.43;;;5.10;90.80;;;5.42;64.63;99611.09;5007764;28;20045;-45
2021/12/18 01:04:07;;;;;;;21.53;14.47;;;5.10;91.10;;;5.43;64.87;99604.03;5006828;28;20059;-43
2021/12/18 01:06:35;;;;;;;27.03;14.87;;;5.20;91.10;;;5.45;65.56;99604.84;5006421;28;20045;-42
2021/12/18 01:09:03;;;;;;;23.83;14.03;;;5.20;90.70;;;5.45;65.22;99612.75;5006222;28;20054;-42
2021/12/18 01:11:42;;;;;;;24.17;14.67;;;5.10;90.80;;;5.44;64.93;99609.25;5006973;28;20058;-43
2021/12/18 01:24:57;;;;;;;23.53;14.63;;;5.10;90.20;;;5.35;64.23;99601.81;5006604;28;20236;-42
2021/12/18 01:27:25;;;;;;;23.70;14.67;;;5.00;90.00;;;5.35;65.32;99607.09;5006552;28;20048;-42
2021/12/18 01:29:53;;;;;;;24.67;15.83;;;5.00;90.40;;;5.37;64.86;99607.88;5007396;28;20259;-42
2021/12/18 01:32:22;;;;;;;20.10;13.90;;;5.10;90.30;;;5.37;64.61;99609.63;5006474;28;20045;-43
2021/12/18 01:34:50;;;;;;;24.93;15.20;;;5.10;90.20;;;5.35;65.31;99617.66;5007103;28;20410;-43
2021/12/18 01:37:20;;;;;;;26.60;14.83;;;5.10;90.20;;;5.32;64.80;99605.44;5006091;28;20373;-42
2021/12/18 01:39:48;;;;;;;21.90;14.07;;;5.00;90.50;;;5.34;64.98;99613.31;5005197;28;20057;-43
2021/12/18 01:42:59;;;;;;;21.13;12.90;;;5.00;90.50;;;5.35;65.72;99611.50;5006645;28;20053;-42
2021/12/18 01:53:31;;;;;;;23.97;14.10;;;5.10;90.00;;;5.35;65.50;99608.88;5006810;28;20045;-43
2021/12/18 01:55:59;;;;;;;23.13;14.47;;;5.00;90.40;;;5.32;65.39;99608.09;5005892;28;20052;-42
2021/12/18 01:58:27;;;;;;;21.97;13.70;;;5.00;90.00;;;5.33;65.51;99611.59;5006145;28;20052;-42
2021/12/18 02:00:58;;;;;;;24.87;15.33;;;5.00;90.10;;;5.34;65.29;99610.66;5007144;28;20240;-42
2021/12/18 02:03:26;;;;;;;24.50;14.17;;;5.00;90.30;;;5.31;64.94;99608.16;5006996;28;20371;-43
2021/12/18 02:05:54;;;;;;;24.43;13.43;;;5.00;90.20;;;5.28;64.99;99609.19;5006350;28;20046;-42
2021/12/18 02:08:27;;;;;;;23.37;14.63;;;5.00;90.40;;;5.28;65.47;99609.19;5006256;28;20355;-43
2021/12/18 02:11:14;;;;;;;25.47;14.93;;;5.00;90.80;;;5.29;65.95;99605.63;5005494;28;20046;-42
2021/12/18 02:21:56;;;;;;;24.07;13.20;;;5.10;89.60;;;5.24;65.14;99601.53;5033578;28;20075;-42
2021/12/18 02:24:27;;;;;;;24.87;14.50;;;5.00;90.00;;;5.25;65.58;99603.22;5027050;28;20053;-43
2021/12/18 02:26:56;;;;;;;21.90;14.20;;;5.00;90.20;;;5.21;64.72;99599.03;5025901;28;20037;-43
2021/12/18 02:29:25;;;;;;;25.27;15.37;;;4.90;90.20;;;5.18;65.55;99605.34;5027170;28;20357;-43
2021/12/18 02:31:52;;;;;;;22.53;13.43;;;4.80;90.60;;;5.18;65.00;99594.78;5026337;28;20049;-43
2021/12/18 02:34:26;;;;;;;22.53;13.67;;;4.90;90.70;;;5.22;64.96;99601.59;5025623;28;20053;-38
2021/12/18 02:37:01;;;;;;;;;;;4.90;90.50;;;5.19;65.17;99598.25;5028035;28;20053;-38
2021/12/18 02:42:12;;;;;;;23.43;15.13;;;4.90;90.00;;;5.20;64.82;99603.47;5029356;28;20059;-38
2021/12/18 02:44:40;;;;;;;26.77;14.17;;;4.90;90.40;;;5.18;65.37;99600.06;5029375;28;20059;-38
2021/12/18 02:47:09;;;;;;;23.30;15.63;;;4.90;90.20;;;5.20;64.69;99599.97;5029135;28;20057;-38
2021/12/18 02:49:48;;;;;;;23.50;13.67;;;4.90;90.10;;;5.19;64.87;99601.75;5029665;28;20226;-38
2021/12/18 02:52:27;;;;;;;25.13;14.83;;;4.90;90.00;;;5.18;65.20;99613.25;5028764;28;20055;-38
2021/12/18 02:54:55;;;;;;;23.17;14.10;;;4.90;90.50;;;5.18;64.87;99610.63;5029412;28;20057;-38
2021/12/18 02:57:23;;;;;;;20.57;14.33;;;4.80;90.40;;;5.18;64.67;99609.78;5028675;28;20055;-38
2021/12/18 02:59:53;;;;;;;24.87;14.70;;;4.80;90.30;;;5.15;64.70;99604.63;5028736;28;20064;-38
2021/12/18 03:02:22;;;;;;;21.37;13.17;;;4.80;90.40;;;5.11;65.21;99598.66;5029257;28;20042;-38
2021/12/18 03:04:55;;;;;;;24.77;14.30;;;4.70;90.80;;;5.11;64.71;99598.66;5028677;28;20045;-38
2021/12/18 03:07:25;;;;;;;25.20;14.30;;;4.70;90.50;;;5.07;65.32;99594.47;5028405;28;20067;-38
2021/12/18 03:24:21;;;;;;;22.37;14.37;;;4.70;90.80;;;4.97;64.92;99594.09;5046749;28;20076;-38
2021/12/18 03:26:49;;;;;;;23.03;14.20;;;4.60;90.60;;;4.98;64.87;99602.84;5046464;28;20057;-38
2021/12/18 03:29:17;;;;;;;25.00;15.00;;;4.60;90.50;;;4.97;65.39;99593.22;5035861;28;20076;-38
2021/12/18 03:31:45;;;;;;;24.43;14.83;;;4.60;90.50;;;4.96;65.24;99602.06;5027465;28;20333;-38
2021/12/18 03:34:13;;;;;;;21.13;13.43;;;4.60;90.80;;;4.95;65.50;99603.88;5028583;28;20056;-38
2021/12/18 03:36:41;;;;;;;27.03;15.57;;;4.60;90.90;;;4.95;65.29;99600.38;5027981;28;20051;-38
2021/12/18 03:39:09;;;;;;;27.00;15.50;;;4.60;90.80;;;4.90;64.83;99596.19;5028710;28;20052;-38
2021/12/18 03:41:37;;;;;;;25.87;15.53;;;4.60;90.70;;;4.88;65.42;99597.19;5027618;28;20049;-39
2021/12/18 03:44:05;;;;;;;24.77;14.03;;;4.60;90.90;;;4.87;65.57;99588.41;5027959;28;20056;-38
2021/12/18 03:46:32;;;;;;;24.93;14.40;;;4.50;90.80;;;4.86;65.03;99593.75;5027947;28;20055;-38
2021/12/18 03:49:00;;;;;;;23.27;13.93;;;4.60;90.80;;;4.80;65.10;99591.44;5027280;28;20055;-38
2021/12/18 03:51:28;;;;;;;27.13;16.53;;;4.60;90.40;;;4.82;65.59;99586.94;5027876;28;20048;-38
2021/12/18 03:53:56;;;;;;;21.50;12.97;;;4.50;90.20;;;4.82;64.95;99585.16;5025955;28;20053;-38
2021/12/18 03:56:24;;;;;;;24.57;14.50;;;4.50;90.40;;;4.81;64.98;99587.84;5027818;28;20057;-38
2021/12/18 03:58:52;;;;;;;25.27;14.97;;;4.50;90.40;;;4.78;65.13;99585.38;5027198;28;20057;-38
2021/12/18 04:01:20;;;;;;;24.40;14.27;;;4.50;90.30;;;4.79;65.12;99580.03;5028681;28;20049;-38
2021/12/18 04:03:48;;;;;;;25.07;15.03;;;4.50;90.20;;;4.77;65.46;99588.94;5027942;28;20056;-38
2021/12/18 04:06:16;;;;;;;24.10;14.10;;;4.40;90.50;;;4.74;65.02;99582.03;5027605;28;20236;-38
2021/12/18 04:08:44;;;;;;;21.87;14.23;;;4.40;90.90;;;4.73;65.36;99581.19;5026249;28;20053;-38
2021/12/18 04:11:12;;;;;;;25.50;14.73;;;4.40;91.00;;;4.70;65.22;99578.69;5028975;28;20229;-38
2021/12/18 04:13:44;;;;;;;23.70;13.97;;;4.40;90.80;;;4.71;65.03;99585.69;5028096;28;20054;-38
2021/12/18 04:16:13;;;;;;;24.67;14.33;;;4.40;90.50;;;4.70;65.00;99583.97;5028644;28;20643;-38
2021/12/18 04:18:41;;;;;;;27.17;15.07;;;4.40;90.70;;;4.73;65.16;99583.00;5027466;28;20352;-38
2021/12/18 04:21:10;;;;;;;22.30;12.70;;;4.50;90.80;;;4.72;65.79;99590.03;5027925;28;20049;-38
2021/12/18 04:23:37;;;;;;;21.80;13.50;;;4.40;90.50;;;4.69;64.69;99590.19;5027290;28;20352;-38
2021/12/18 04:26:05;;;;;;;24.33;13.47;;;4.40;90.70;;;4.68;65.44;99585.84;5026583;28;20054;-38
2021/12/18 04:28:33;;;;;;;22.17;14.37;;;4.40;90.90;;;4.68;65.15;99587.63;5025762;28;20061;-38
2021/12/18 04:31:01;;;;;;;22.13;12.90;;;4.30;91.00;;;4.67;64.88;99586.78;5027058;28;20255;-38
2021/12/18 04:33:29;;;;;;;26.20;15.13;;;4.30;90.70;;;4.69;65.15;99587.56;5027729;28;20363;-38
2021/12/18 04:35:57;;;;;;;24.77;14.70;;;4.40;90.80;;;4.67;65.43;99583.28;5026465;28;20045;-38
2021/12/18 04:38:24;;;;;;;20.63;13.10;;;4.30;90.80;;;4.68;65.18;99587.63;5026689;28;20315;-38
2021/12/18 04:40:52;;;;;;;25.93;15.23;;;4.30;91.10;;;4.69;65.15;99574.38;5027219;28;20059;-38
2021/12/18 04:43:20;;;;;;;28.87;15.93;;;4.40;91.00;;;4.71;65.67;99576.91;5027472;28;20049;-38
2021/12/18 04:45:48;;;;;;;23.87;14.63;;;4.40;90.70;;;4.70;65.52;99583.97;5026562;28;20053;-38
2021/12/18 04:48:16;;;;;;;23.43;15.27;;;4.40;90.70;;;4.69;65.31;99582.28;5027361;28;20260;-38
2021/12/18 04:50:44;;;;;;;31.97;18.53;;;4.30;90.90;;;4.66;64.97;99581.59;5027354;28;20053;-38
2021/12/18 04:53:12;;;;;;;40.73;22.27;;;4.30;91.30;;;4.68;65.55;99571.81;5026210;28;20723;-38
2021/12/18 04:55:40;;;;;;;31.73;17.53;;;4.40;91.30;;;4.68;65.09;99570.00;5027017;28;20406;-38
2021/12/18 04:58:07;;;;;;;26.03;14.97;;;4.30;91.10;;;4.68;65.55;99556.81;5026936;28;20501;-38
2021/12/18 05:00:38;;;;;;;24.37;13.73;;;4.30;91.20;;;4.67;65.19;99576.25;5028106;28;20038;-38
2021/12/18 05:03:11;;;;;;;21.13;12.40;;;4.30;91.20;;;4.67;65.81;99570.09;5025850;28;20055;-38
2021/12/18 05:05:39;;;;;;;25.73;16.57;;;4.40;90.90;;;4.67;65.17;99563.03;5026176;28;20050;-38
2021/12/18 05:08:07;;;;;;;23.77;13.47;;;4.40;91.30;;;4.69;65.69;99570.84;5026567;28;20075;-38
2021/12/18 05:10:35;;;;;;;24.90;13.90;;;4.40;91.10;;;4.67;65.56;99573.59;5027968;28;20042;-38
2021/12/18 05:13:03;;;;;;;23.47;13.93;;;4.40;90.60;;;4.66;64.69;99585.06;5026244;28;20333;-38
2021/12/18 05:15:32;;;;;;;21.23;10.77;;;4.40;90.40;;;4.65;64.96;99587.78;5026206;28;20307;-38
2021/12/18 05:18:00;;;;;;;21.97;13.27;;;4.30;90.70;;;4.65;65.15;99590.41;5027301;28;20063;-38
2021/12/18 05:20:28;;;;;;;24.23;12.53;;;4.30;90.90;;;4.63;65.78;99592.28;5025863;28;20045;-38
2021/12/18 05:22:56;;;;;;;22.13;11.73;;;4.30;91.10;;;4.66;64.94;99592.97;5026331;28;20049;-38
2021/12/18 05:25:24;;;;;;;19.63;11.93;;;4.30;91.00;;;4.65;64.98;99595.69;5026925;28;20366;-38
2021/12/18 05:27:52;;;;;;;21.07;11.87;;;4.30;90.70;;;4.60;65.30;99595.94;5026397;28;20369;-38
2021/12/18 05:30:20;;;;;;;22.13;12.33;;;4.30;90.90;;;4.60;64.80;99589.81;5026980;28;20045;-38
2021/12/18 05:32:48;;;;;;;19.70;12.43;;;4.20;90.60;;;4.56;65.14;99583.81;5026722;28;20057;-38
2021/12/18 05:35:16;;;;;;;20.13;12.30;;;4.20;90.80;;;4.54;65.33;99586.53;5026349;28;20049;-38
2021/12/18 05:37:50;;;;;;;20.70;11.87;;;4.10;91.20;;;4.53;65.61;99584.81;5026039;28;20067;-38
2021/12/18 05:40:21;;;;;;;21.05;11.35;;;4.10;91.00;;;4.50;65.20;99584.13;5027894;28;20259;-38
2021/12/18 05:42:52;;;;;;;19.63;11.13;;;4.20;91.30;;;4.47;65.28;99593.03;5027304;28;20053;-38
2021/12/18 05:45:20;;;;;;;20.17;10.93;;;4.10;91.80;;;4.46;64.82;99593.09;5026440;28;20049;-38
2021/12/18 05:47:48;;;;;;;21.53;12.20;;;4.10;91.10;;;4.44;65.37;99595.84;5026177;28;20045;-38
2021/12/18 05:50:20;;;;;;;21.87;12.67;;;4.10;91.80;;;4.43;65.53;99596.75;5027200;28;20151;-38
2021/12/18 05:52:48;;;;;;;19.80;11.87;;;4.10;91.80;;;4.41;65.32;99587.22;5025380;28;20046;-38
2021/12/18 05:55:20;;;;;;;20.77;11.30;;;4.00;92.00;;;4.39;65.55;99592.56;5025517;28;20063;-38
2021/12/18 05:57:48;;;;;;;18.97;11.23;;;4.00;92.10;;;4.40;65.69;99586.38;5026311;28;20053;-38
2021/12/18 06:00:17;;;;;;;21.30;11.43;;;4.00;92.30;;;4.38;65.72;99596.13;5027931;28;20061;-38
2021/12/18 06:02:46;;;;;;;21.17;11.17;;;4.00;92.20;;;4.37;65.43;99591.78;5025162;28;20044;-38
2021/12/18 06:05:15;;;;;;;19.97;10.40;;;4.00;92.20;;;4.37;65.76;99598.84;5025765;28;20075;-38
2021/12/18 06:08:09;;;;;;;21.93;11.10;;;4.00;92.40;;;4.39;65.66;99605.75;5026059;28;20275;-38
2021/12/18 06:10:33;;;;;;;20.70;11.40;;;4.00;92.50;;;4.38;65.10;99608.44;5027204;28;20067;-38
2021/12/18 06:13:02;;;;;;;21.47;10.83;;;4.00;92.40;;;4.41;65.70;99605.69;5030105;28;20332;-38
2021/12/18 06:15:31;;;;;;;21.47;11.43;;;4.10;92.60;;;4.41;65.80;99608.31;5029187;28;20064;-38
2021/12/18 06:18:00;;;;;;;20.30;11.60;;;4.10;92.40;;;4.41;65.68;99618.88;5029831;28;20049;-38
2021/12/18 06:20:30;;;;;;;18.23;10.43;;;4.00;92.50;;;4.39;65.80;99605.75;5030792;28;20054;-38
2021/12/18 06:22:57;;;;;;;15.63;9.33;;;4.00;92.50;;;4.39;65.62;99602.25;5030699;28;20054;-38
2021/12/18 06:25:25;;;;;;;16.73;9.10;;;4.00;92.50;;;4.39;65.63;99608.38;5028728;28;20045;-38
2021/12/18 06:27:54;;;;;;;19.20;11.50;;;4.00;92.50;;;4.38;65.89;99606.69;5029950;28;20064;-38
2021/12/18 06:30:22;;;;;;;18.73;12.57;;;4.00;92.70;;;4.36;65.59;99613.78;5028947;28;20091;-38
2021/12/18 06:32:50;;;;;;;18.37;11.53;;;4.00;92.80;;;4.36;65.84;99605.03;5030181;28;20057;-38
2021/12/18 06:35:18;;;;;;;19.13;11.00;;;4.00;93.30;;;4.37;65.53;99602.31;5029247;28;20223;-38
2021/12/18 06:37:46;;;;;;;20.53;10.10;;;4.00;93.30;;;4.39;65.52;99603.09;5029426;28;20061;-38
2021/12/18 06:40:16;;;;;;;18.93;10.60;;;4.00;93.30;;;4.40;65.92;99611.88;5028164;28;20052;-38
2021/12/18 06:42:44;;;;;;;16.20;9.67;;;4.10;93.20;;;4.41;65.69;99603.88;5029306;28;20049;-39
2021/12/18 06:45:12;;;;;;;19.50;11.20;;;4.10;93.20;;;4.42;66.35;99604.72;5028536;28;20045;-38
2021/12/18 06:47:41;;;;;;;20.13;12.10;;;4.10;93.10;;;4.38;65.39;99609.31;5029483;28;20248;-38
2021/12/18 06:50:10;;;;;;;21.00;12.10;;;4.00;93.20;;;4.39;65.57;99599.63;5029636;28;20073;-38
2021/12/18 06:52:38;;;;;;;15.83;9.63;;;4.00;93.60;;;4.39;65.89;99608.38;5029725;28;20229;-38
2021/12/18 06:55:06;;;;;;;20.27;11.87;;;4.00;93.60;;;4.42;66.43;99602.09;5029440;28;20052;-38
2021/12/18 06:57:34;;;;;;;17.30;10.47;;;4.10;93.70;;;4.45;65.83;99612.50;5029149;28;20457;-38
2021/12/18 07:00:10;;;;;;;16.40;9.07;;;4.10;93.30;;;4.45;66.07;99604.59;5029057;28;20057;-38
2021/12/18 07:02:38;;;;;;;16.83;9.10;;;4.10;93.40;;;4.44;66.45;99608.16;5028350;28;20056;-38
2021/12/18 07:05:08;;;;;;;14.03;8.63;;;4.10;93.30;;;4.43;66.19;99625.75;5028144;28;20083;-38
2021/12/18 07:07:36;;;;;;;18.07;9.37;;;4.10;92.80;;;4.43;66.15;99619.63;5029805;28;20057;-38
2021/12/18 07:10:07;;;;;;;16.80;11.07;;;4.10;92.50;;;4.42;66.29;99625.84;5028995;28;20347;-38
2021/12/18 07:12:35;;;;;;;17.40;9.33;;;4.20;92.40;;;4.43;65.37;99617.00;5028812;28;20049;-38
2021/12/18 07:15:06;;;;;;;22.13;12.77;;;4.10;92.30;;;4.40;65.44;99615.38;5027886;28;20365;-38
2021/12/18 07:17:34;;;;;;;32.60;18.97;;;4.00;92.40;;;4.38;65.63;99621.63;5028278;28;20067;-39
2021/12/18 07:20:05;;;;;;;20.03;11.53;;;4.00;92.70;;;4.37;66.07;99622.59;5028349;28;20057;-39
2021/12/18 07:22:33;;;;;;;19.73;11.10;;;4.00;92.30;;;4.39;65.92;99631.28;5027293;28;20248;-38
2021/12/18 07:25:01;;;;;;;17.67;10.37;;;4.00;92.80;;;4.40;65.23;99627.69;5028854;28;20053;-38
2021/12/18 07:27:29;;;;;;;19.10;11.10;;;4.10;92.50;;;4.42;66.19;99631.09;5028320;28;20061;-38
2021/12/18 07:29:57;;;;;;;16.63;10.23;;;4.10;92.30;;;4.45;66.05;99646.78;5026335;28;20064;-39
2021/12/18 07:32:26;;;;;;;13.73;7.83;;;4.10;92.00;;;4.42;65.54;99646.94;5011411;28;20045;-38
2021/12/18 07:34:54;;;;;;;20.13;12.03;;;4.10;91.50;;;4.41;66.16;99646.09;5028154;28;20288;-39
2021/12/18 07:37:24;;;;;;;15.90;9.57;;;4.10;91.80;;;4.40;65.89;99647.03;5028166;28;20041;-39
2021/12/18 07:39:53;;;;;;;32.03;17.00;;;4.10;91.60;;;4.40;65.50;99652.31;5028749;28;20053;-38
2021/12/18 07:42:22;;;;;;;29.03;15.93;;;4.00;91.40;;;4.40;66.03;99654.06;5028078;28;20049;-38
2021/12/18 07:44:51;;;;;;;61.50;34.03;;;4.00;91.60;;;4.39;65.42;99645.31;5027464;28;20045;-39
2021/12/18 07:47:19;;;;;;;60.43;35.57;;;4.00;91.80;;;4.39;65.58;99647.09;5027123;28;20336;-39
2021/12/18 07:49:47;;;;;;;88.00;48.20;;;4.10;91.60;;;4.36;65.90;99641.94;5028427;28;20050;-39
2021/12/18 07:52:15;;;;;;;28.20;15.37;;;4.10;91.30;;;4.37;65.41;99651.59;5028897;28;20059;-39
2021/12/18 07:54:43;;;;;;;26.90;13.20;;;4.10;90.70;;;4.36;65.70;99649.88;5028405;28;20062;-39
2021/12/18 07:57:11;;;;;;;21.70;12.13;;;4.10;91.10;;;4.37;65.62;99639.25;5026173;28;20049;-39
2021/12/18 07:59:39;;;;;;;21.30;11.80;;;4.10;90.70;;;4.40;65.08;99646.16;5029174;28;20247;-39
2021/12/18 08:02:07;;;;;;;21.77;11.30;;;4.10;90.80;;;4.38;65.47;99640.09;5028596;28;20045;-39
2021/12/18 08:04:35;;;;;;;37.97;22.57;;;4.00;90.70;;;4.34;65.29;99645.53;5027100;28;20051;-39
2021/12/18 08:07:03;;;;;;;26.23;15.43;;;4.10;90.70;;;4.38;65.44;99637.47;5027445;28;20051;-39
2021/12/18 08:09:31;;;;;;;22.03;13.57;;;4.10;90.70;;;4.38;65.36;99637.47;5029070;28;20180;-40
2021/12/18 08:11:59;;;;;;;18.20;10.50;;;4.10;90.40;;;4.37;64.89;99639.25;5027902;28;20067;-38
2021/12/18 08:14:26;;;;;;;17.60;10.57;;;4.00;90.50;;;4.38;65.44;99645.38;5027716;28;20058;-39
2021/12/18 08:16:54;;;;;;;33.13;17.37;;;4.10;90.70;;;4.40;65.45;99654.06;5028478;28;20063;-38
2021/12/18 08:19:22;;;;;;;17.23;9.60;;;4.10;90.40;;;4.43;65.48;99651.28;5026822;28;20360;-39
2021/12/18 08:21:50;;;;;;;16.33;9.40;;;4.10;90.20;;;4.43;65.26;99646.00;5027883;28;20336;-38
2021/12/18 08:24:18;;;;;;;21.20;12.13;;;4.10;89.90;;;4.34;64.95;99642.91;5027660;28;20447;-39
2021/12/18 08:26:47;;;;;;;19.23;11.50;;;4.00;90.20;;;4.34;65.69;99642.00;5027266;28;20240;-39
2021/12/18 08:29:16;;;;;;;28.57;17.17;;;4.00;90.50;;;4.34;64.81;99645.53;5027193;28;20282;-39
2021/12/18 08:31:45;;;;;;;22.30;14.40;;;4.00;90.90;;;4.34;65.34;99640.25;5027941;28;20049;-38
2021/12/18 08:34:13;;;;;;;17.47;9.83;;;4.00;90.50;;;4.35;64.99;99641.09;5026624;28;20046;-39
2021/12/18 08:36:41;;;;;;;29.23;16.17;;;4.00;90.80;;;4.38;65.29;99648.88;5026695;28;20344;-39
2021/12/18 08:39:09;;;;;;;23.63;12.20;;;4.10;91.00;;;4.42;65.16;99649.56;5027637;28;20253;-38
2021/12/18 08:41:38;;;;;;;27.87;16.73;;;4.10;90.60;;;4.43;64.82;99649.50;5027500;28;20053;-39
2021/12/18 08:44:06;;;;;;;31.87;18.03;;;4.10;91.00;;;4.45;65.86;99644.16;5027668;28;20056;-40
2021/12/18 08:46:35;;;;;;;33.63;19.90;;;4.20;90.70;;;4.48;65.38;99634.31;5027936;28;20053;-38
2021/12/18 08:49:03;;;;;;;22.07;12.73;;;4.20;90.80;;;4.50;64.93;99629.81;5027193;28;20045;-39
2021/12/18 08:51:31;;;;;;;32.87;17.63;;;4.20;90.30;;;4.49;65.39;99637.81;5027285;28;20274;-39
2021/12/18 08:53:59;;;;;;;20.30;12.13;;;4.20;90.40;;;4.50;65.44;99643.00;5027034;28;20251;-39
2021/12/18 08:56:27;;;;;;;16.07;8.93;;;4.20;90.30;;;4.50;65.29;99635.09;5025795;28;20079;-38
2021/12/18 08:58:55;;;;;;;18.37;11.10;;;4.20;90.00;;;4.52;65.38;99641.16;5025855;28;20057;-38
2021/12/18 09:01:25;;;;;;;26.27;15.43;;;4.20;89.90;;;4.53;65.19;99632.28;5037307;28;20370;-39
2021/12/18 09:03:54;;;;;;;24.40;15.00;;;4.20;90.20;;;4.56;65.24;99633.09;5037995;28;20051;-39
2021/12/18 09:06:23;;;;;;;47.10;25.10;;;4.30;90.40;;;4.60;65.00;99629.38;5035234;28;20075;-38
2021/12/18 09:08:52;;;;;;;28.37;18.27;;;4.30;90.10;;;4.63;65.21;99624.78;5038407;28;20045;-39
2021/12/18 09:11:21;;;;;;;27.07;15.00;;;4.40;90.00;;;4.62;64.97;99622.25;5034465;28;20044;-39
2021/12/18 09:13:48;;;;;;;20.00;11.43;;;4.40;89.70;;;4.63;65.31;99624.78;5036989;28;20049;-38
2021/12/18 09:16:18;;;;;;;16.03;10.00;;;4.40;89.50;;;4.65;65.14;99624.72;5033567;28;20048;-38
2021/12/18 09:18:46;;;;;;;20.13;11.47;;;4.40;89.90;;;4.67;65.76;99626.38;5036333;28;20428;-39
2021/12/18 09:21:14;;;;;;;22.63;11.30;;;4.50;90.10;;;4.68;65.78;99617.50;5034894;28;20564;-39
2021/12/18 09:23:42;;;;;;;23.87;13.37;;;4.50;89.80;;;4.68;65.26;99621.94;5028520;28;20057;-39
2021/12/18 09:26:09;;;;;;;22.03;12.67;;;4.50;89.60;;;4.70;65.62;99618.28;5025693;28;20360;-39
2021/12/18 09:28:38;;;;;;;17.03;9.43;;;4.50;89.90;;;4.72;65.50;99629.63;5023616;28;20051;-39
2021/12/18 09:31:08;;;;;;;32.97;18.60;;;4.50;90.20;;;4.75;65.53;99623.34;5033916;28;20053;-39
2021/12/18 09:33:36;;;;;;;19.13;10.70;;;4.50;90.10;;;4.74;65.17;99632.19;5037586;28;20061;-39
2021/12/18 09:36:05;;;;;;;22.27;13.47;;;4.50;90.10;;;4.77;65.03;99629.41;5037222;28;20034;-38
2021/12/18 09:38:33;;;;;;;19.27;10.47;;;4.60;89.80;;;4.78;65.29;99625.81;5036683;28;20064;-39
2021/12/18 09:41:03;;;;;;;20.00;10.77;;;4.50;89.80;;;4.80;65.10;99623.09;5038346;28;20059;-39
2021/12/18 09:43:33;;;;;;;22.10;12.17;;;4.60;89.90;;;4.82;65.16;99626.53;5036887;28;20068;-39
2021/12/18 09:46:07;;;;;;;20.03;11.83;;;4.60;90.10;;;4.83;65.16;99629.09;5041043;28;20061;-39
2021/12/18 09:48:38;;;;;;;32.23;17.50;;;4.60;90.20;;;4.83;65.05;99622.97;5042648;28;20060;-39
2021/12/18 09:51:12;;;;;;;30.07;16.17;;;4.60;89.70;;;4.82;65.61;99621.25;5041925;28;20049;-39
2021/12/18 09:53:41;;;;;;;30.80;18.23;;;4.50;90.10;;;4.83;65.07;99615.91;5041683;28;20293;-39
2021/12/18 09:56:09;;;;;;;30.20;17.17;;;4.60;90.10;;;4.82;64.91;99610.69;5037440;28;20049;-39
2021/12/18 09:58:37;;;;;;;23.93;13.07;;;4.50;89.90;;;4.85;65.67;99613.19;5028708;28;20072;-39
2021/12/18 10:01:05;;;;;;;51.07;28.50;;;4.60;90.20;;;4.86;65.43;99609.59;5031313;28;20254;-39
2021/12/18 10:03:58;;;;;;;31.23;16.80;;;4.60;90.10;;;4.88;65.56;99608.59;5029403;28;20060;-39
2021/12/18 10:06:37;;;;;;;24.70;14.75;;;4.60;89.50;;;4.91;64.95;99600.53;5030643;28;20048;-46
2021/12/18 10:09:35;;;;;;;24.43;12.37;;;4.70;89.80;;;4.92;65.24;99591.69;5029328;28;20048;-45
2021/12/18 10:12:15;;;;;;;37.63;19.70;;;4.70;89.70;;;4.95;65.03;99587.19;5028956;28;20063;-44
2021/12/18 10:15:00;;;;;;;20.30;11.47;;;4.70;88.90;;;4.96;65.40;99584.44;5029343;28;20053;-45
2021/12/18 10:17:37;;;;;;;19.00;11.23;;;4.70;89.40;;;4.97;64.74;99586.16;5029806;28;20275;-43
2021/12/18 10:20:11;;;;;;;19.63;11.00;;;4.70;89.40;;;4.99;64.86;99580.81;5028995;28;20049;-43
2021/12/18 10:22:52;;;;;;;18.73;11.25;;;4.70;89.40;;;5.00;65.04;99582.50;5028223;28;20056;-44
2021/12/18 10:25:31;;;;;;;16.50;9.80;;;4.70;89.40;;;5.03;65.53;99582.34;5029441;28;20073;-44
2021/12/18 10:28:19;;;;;;;18.70;11.17;;;4.80;89.60;;;5.05;65.04;99581.34;5029468;28;20049;-45
2021/12/18 10:30:53;;;;;;;16.87;10.57;;;4.80;89.20;;;5.05;65.09;99576.06;5025346;28;20053;-47
2021/12/18 10:33:28;;;;;;;14.37;8.60;;;4.80;90.40;;;5.07;64.25;99570.69;5030077;28;20057;-43
2021/12/18 10:36:00;;;;;;;13.47;7.27;;;4.80;89.30;;;5.07;65.27;99575.97;5028436;28;20355;-43
2021/12/18 10:38:49;;;;;;;17.77;10.73;;;4.90;89.10;;;5.07;65.32;99576.81;5029943;28;20243;-43
2021/12/18 10:41:30;;;;;;;16.13;9.70;;;4.80;88.50;;;5.08;64.82;99585.63;5029180;28;20057;-45
2021/12/18 10:44:03;;;;;;;19.33;10.60;;;4.80;89.10;;;5.08;65.01;99583.84;5029670;28;20046;-44
2021/12/18 10:46:33;;;;;;;20.77;11.07;;;4.80;89.30;;;5.09;65.20;99568.84;5028986;28;20054;-42
2021/12/18 10:49:09;;;;;;;15.37;9.23;;;4.80;89.00;;;5.09;64.75;99567.03;5028981;28;20238;-42
2021/12/18 10:51:39;;;;;;;18.93;9.50;;;4.90;89.20;;;5.14;65.69;99569.47;5029419;28;20243;-42
2021/12/18 10:54:13;;;;;;;23.67;11.87;;;4.90;89.30;;;5.18;65.26;99567.53;5028744;28;20049;-42
2021/12/18 10:56:51;;;;;;;13.97;8.30;;;4.90;88.70;;;5.18;65.35;99564.88;5025652;28;20241;-42
2021/12/18 10:59:24;;;;;;;13.63;7.97;;;4.90;88.90;;;5.16;64.57;99566.72;5030379;28;20053;-43
2021/12/18 11:01:56;;;;;;;14.80;8.17;;;4.90;88.80;;;5.17;65.67;99560.50;5027994;28;20064;-41
2021/12/18 11:04:30;;;;;;;14.23;7.70;;;4.90;88.40;;;5.15;65.02;99554.47;5028869;28;20053;-42
2021/12/18 11:06:58;;;;;;;;;;;4.90;88.50;;;5.09;65.00;99553.84;5027531;28;20063;-42
2021/12/18 11:09:45;;;;;;;13.03;7.63;;;4.80;88.00;;;5.15;64.45;99551.81;5029615;28;19923;-43
2021/12/18 11:15:01;;;;;;;11.57;7.60;;;4.90;88.60;;;5.15;64.79;99543.91;5027743;28;20057;-42
2021/12/18 11:17:30;;;;;;;17.27;9.40;;;4.90;88.30;;;5.17;65.31;99540.25;5027573;28;20378;-44
2021/12/18 11:19:58;;;;;;;16.73;9.20;;;5.00;88.30;;;5.17;64.56;99537.59;5029136;28;20072;-45
2021/12/18 11:22:26;;;;;;;14.67;8.63;;;5.00;88.10;;;5.21;65.17;99536.50;5027020;28;20057;-43